sensor_id;sensor_type;location;lat;lon;timestamp;P1;durP1;ratioP1;P2;durP2;ratioP2
35909;SDS011;22004;49.120;-0.200;2023-03-01T00:01:03;16.48;;;11.98;;
35909;SDS011;22004;49.120;-0.200;2023-03-01T00:03:31;16.38;;;12.90;;
35909;SDS011;22004;49.120;-0.200;2023-03-01T00:05:56;17.63;;;12.60;;
35909;SDS011;22004;49.120;-0.200;2023-03-01T00:08:22;17.77;;;12.40;;
35909;SDS011;22004;49.120;-0.200;2023-03-01T00:10:47;21.50;;;13.80;;
35909;SDS011;22004;49.120;-0.200;2023-03-01T00:13:13;17.45;;;12.95;;
35909;SDS011;22004;49.120;-0.200;2023-03-01T00:15:39;19.80;;;13.88;;
35909;SDS011;22004;49.120;-0.200;2023-03-01T00:18:05;20.35;;;13.07;;
35909;SDS011;22004;49.120;-0.200;2023-03-01T00:20:31;17.27;;;12.55;;
35909;SDS011;22004;49.120;-0.200;2023-03-01T00:22:56;15.30;;;11.55;;
35909;SDS011;22004;49.120;-0.200;2023-03-01T00:25:21;20.67;;;13.02;;
35909;SDS011;22004;49.120;-0.200;2023-03-01T00:27:47;17.27;;;12.32;;
35909;SDS011;22004;49.120;-0.200;2023-03-01T00:30:14;19.80;;;13.75;;
35909;SDS011;22004;49.120;-0.200;2023-03-01T00:32:39;16.95;;;12.32;;
35909;SDS011;22004;49.120;-0.200;2023-03-01T00:35:05;18.75;;;12.38;;
35909;SDS011;22004;49.120;-0.200;2023-03-01T00:37:30;16.00;;;12.30;;
35909;SDS011;22004;49.120;-0.200;2023-03-01T00:39:56;19.48;;;11.88;;
35909;SDS011;22004;49.120;-0.200;2023-03-01T00:42:21;17.50;;;12.18;;
35909;SDS011;22004;49.120;-0.200;2023-03-01T00:44:47;15.05;;;11.23;;
35909;SDS011;22004;49.120;-0.200;2023-03-01T00:47:12;17.27;;;12.63;;
35909;SDS011;22004;49.120;-0.200;2023-03-01T00:49:38;16.77;;;12.02;;
35909;SDS011;22004;49.120;-0.200;2023-03-01T00:52:04;16.15;;;12.07;;
35909;SDS011;22004;49.120;-0.200;2023-03-01T00:54:29;21.10;;;11.80;;
35909;SDS011;22004;49.120;-0.200;2023-03-01T00:56:55;19.80;;;12.48;;
35909;SDS011;22004;49.120;-0.200;2023-03-01T00:59:20;20.13;;;11.98;;
35909;SDS011;22004;49.120;-0.200;2023-03-01T01:01:45;16.58;;;11.25;;
35909;SDS011;22004;49.120;-0.200;2023-03-01T01:04:11;18.35;;;11.93;;
35909;SDS011;22004;49.120;-0.200;2023-03-01T01:06:39;18.75;;;11.40;;
35909;SDS011;22004;49.120;-0.200;2023-03-01T01:09:08;16.08;;;12.02;;
35909;SDS011;22004;49.120;-0.200;2023-03-01T01:11:42;18.37;;;12.63;;
35909;SDS011;22004;49.120;-0.200;2023-03-01T01:14:08;15.02;;;11.23;;
35909;SDS011;22004;49.120;-0.200;2023-03-01T01:16:33;16.70;;;11.20;;
35909;SDS011;22004;49.120;-0.200;2023-03-01T01:18:59;16.83;;;11.57;;
35909;SDS011;22004;49.120;-0.200;2023-03-01T01:21:24;15.63;;;11.27;;
35909;SDS011;22004;49.120;-0.200;2023-03-01T01:23:51;16.30;;;10.80;;
35909;SDS011;22004;49.120;-0.200;2023-03-01T01:26:18;13.43;;;10.85;;
35909;SDS011;22004;49.120;-0.200;2023-03-01T01:28:45;14.40;;;11.13;;
35909;SDS011;22004;49.120;-0.200;2023-03-01T01:31:11;14.45;;;10.90;;
35909;SDS011;22004;49.120;-0.200;2023-03-01T01:33:36;15.43;;;10.80;;
35909;SDS011;22004;49.120;-0.200;2023-03-01T01:36:02;18.38;;;11.10;;
35909;SDS011;22004;49.120;-0.200;2023-03-01T01:38:29;17.25;;;11.25;;
35909;SDS011;22004;49.120;-0.200;2023-03-01T01:40:57;13.00;;;9.95;;
35909;SDS011;22004;49.120;-0.200;2023-03-01T01:43:27;13.10;;;10.13;;
35909;SDS011;22004;49.120;-0.200;2023-03-01T01:45:55;15.00;;;10.20;;
35909;SDS011;22004;49.120;-0.200;2023-03-01T01:48:26;16.85;;;10.85;;
35909;SDS011;22004;49.120;-0.200;2023-03-01T01:51:05;14.88;;;10.98;;
35909;SDS011;22004;49.120;-0.200;2023-03-01T01:53:34;13.65;;;10.10;;
35909;SDS011;22004;49.120;-0.200;2023-03-01T01:56:01;15.52;;;10.48;;
35909;SDS011;22004;49.120;-0.200;2023-03-01T01:58:28;13.07;;;10.02;;
35909;SDS011;22004;49.120;-0.200;2023-03-01T02:00:55;15.40;;;10.45;;
35909;SDS011;22004;49.120;-0.200;2023-03-01T02:03:23;15.57;;;10.15;;
35909;SDS011;22004;49.120;-0.200;2023-03-01T02:05:55;12.95;;;10.00;;
35909;SDS011;22004;49.120;-0.200;2023-03-01T02:08:27;14.73;;;10.45;;
35909;SDS011;22004;49.120;-0.200;2023-03-01T02:10:55;15.15;;;10.60;;
35909;SDS011;22004;49.120;-0.200;2023-03-01T02:13:22;12.50;;;10.05;;
35909;SDS011;22004;49.120;-0.200;2023-03-01T02:15:48;13.13;;;10.23;;
35909;SDS011;22004;49.120;-0.200;2023-03-01T02:18:14;13.27;;;10.15;;
35909;SDS011;22004;49.120;-0.200;2023-03-01T02:23:21;14.70;;;9.15;;
35909;SDS011;22004;49.120;-0.200;2023-03-01T02:28:22;14.43;;;9.75;;
35909;SDS011;22004;49.120;-0.200;2023-03-01T02:30:48;14.20;;;9.95;;
35909;SDS011;22004;49.120;-0.200;2023-03-01T02:36:01;12.73;;;9.70;;
35909;SDS011;22004;49.120;-0.200;2023-03-01T02:38:30;14.50;;;9.90;;
35909;SDS011;22004;49.120;-0.200;2023-03-01T02:40:57;12.80;;;9.85;;
35909;SDS011;22004;49.120;-0.200;2023-03-01T02:43:22;15.35;;;10.10;;
35909;SDS011;22004;49.120;-0.200;2023-03-01T02:45:53;15.02;;;10.32;;
35909;SDS011;22004;49.120;-0.200;2023-03-01T02:48:22;13.23;;;9.90;;
35909;SDS011;22004;49.120;-0.200;2023-03-01T02:56:26;14.20;;;10.00;;
35909;SDS011;22004;49.120;-0.200;2023-03-01T02:58:52;13.07;;;10.10;;
35909;SDS011;22004;49.120;-0.200;2023-03-01T03:01:18;14.20;;;9.70;;
35909;SDS011;22004;49.120;-0.200;2023-03-01T03:03:44;16.20;;;10.10;;
35909;SDS011;22004;49.120;-0.200;2023-03-01T03:06:09;13.43;;;10.23;;
35909;SDS011;22004;49.120;-0.200;2023-03-01T03:08:35;11.38;;;9.55;;
35909;SDS011;22004;49.120;-0.200;2023-03-01T03:11:00;12.00;;;9.43;;
35909;SDS011;22004;49.120;-0.200;2023-03-01T03:13:26;13.80;;;9.48;;
35909;SDS011;22004;49.120;-0.200;2023-03-01T03:15:53;13.50;;;9.70;;
35909;SDS011;22004;49.120;-0.200;2023-03-01T03:18:20;12.32;;;9.23;;
35909;SDS011;22004;49.120;-0.200;2023-03-01T03:20:46;12.80;;;9.38;;
35909;SDS011;22004;49.120;-0.200;2023-03-01T03:23:12;12.52;;;9.75;;
35909;SDS011;22004;49.120;-0.200;2023-03-01T03:25:38;12.52;;;9.35;;
35909;SDS011;22004;49.120;-0.200;2023-03-01T03:28:04;11.98;;;8.98;;
35909;SDS011;22004;49.120;-0.200;2023-03-01T03:30:35;15.68;;;9.60;;
35909;SDS011;22004;49.120;-0.200;2023-03-01T03:33:03;12.43;;;8.95;;
35909;SDS011;22004;49.120;-0.200;2023-03-01T03:35:31;10.55;;;8.80;;
35909;SDS011;22004;49.120;-0.200;2023-03-01T03:37:59;13.60;;;9.60;;
35909;SDS011;22004;49.120;-0.200;2023-03-01T03:40:26;12.77;;;9.10;;
35909;SDS011;22004;49.120;-0.200;2023-03-01T03:42:55;11.93;;;9.13;;
35909;SDS011;22004;49.120;-0.200;2023-03-01T03:45:21;10.63;;;8.65;;
35909;SDS011;22004;49.120;-0.200;2023-03-01T03:47:46;14.13;;;8.90;;
35909;SDS011;22004;49.120;-0.200;2023-03-01T03:50:12;13.70;;;9.45;;
35909;SDS011;22004;49.120;-0.200;2023-03-01T03:52:39;14.07;;;9.73;;
35909;SDS011;22004;49.120;-0.200;2023-03-01T03:55:06;12.80;;;9.23;;
35909;SDS011;22004;49.120;-0.200;2023-03-01T03:57:39;14.18;;;8.75;;
35909;SDS011;22004;49.120;-0.200;2023-03-01T04:00:07;12.75;;;9.25;;
35909;SDS011;22004;49.120;-0.200;2023-03-01T04:02:40;10.90;;;8.57;;
35909;SDS011;22004;49.120;-0.200;2023-03-01T04:05:06;11.13;;;8.70;;
35909;SDS011;22004;49.120;-0.200;2023-03-01T04:07:33;10.80;;;8.43;;
35909;SDS011;22004;49.120;-0.200;2023-03-01T04:09:58;11.98;;;9.23;;
35909;SDS011;22004;49.120;-0.200;2023-03-01T04:12:24;12.77;;;8.65;;
35909;SDS011;22004;49.120;-0.200;2023-03-01T04:14:49;11.57;;;8.82;;
35909;SDS011;22004;49.120;-0.200;2023-03-01T04:17:14;12.73;;;9.30;;
35909;SDS011;22004;49.120;-0.200;2023-03-01T04:19:40;12.98;;;9.70;;
35909;SDS011;22004;49.120;-0.200;2023-03-01T04:22:08;13.15;;;8.85;;
35909;SDS011;22004;49.120;-0.200;2023-03-01T04:24:36;12.82;;;8.90;;
35909;SDS011;22004;49.120;-0.200;2023-03-01T04:27:01;11.60;;;9.30;;
35909;SDS011;22004;49.120;-0.200;2023-03-01T04:29:27;12.25;;;9.52;;
35909;SDS011;22004;49.120;-0.200;2023-03-01T04:31:52;13.95;;;8.82;;
35909;SDS011;22004;49.120;-0.200;2023-03-01T04:34:18;10.13;;;8.70;;
35909;SDS011;22004;49.120;-0.200;2023-03-01T04:36:43;11.23;;;9.18;;
35909;SDS011;22004;49.120;-0.200;2023-03-01T04:39:09;11.93;;;8.85;;
35909;SDS011;22004;49.120;-0.200;2023-03-01T04:41:37;12.85;;;9.32;;
35909;SDS011;22004;49.120;-0.200;2023-03-01T04:44:06;12.70;;;9.13;;
35909;SDS011;22004;49.120;-0.200;2023-03-01T04:46:32;11.60;;;9.05;;
35909;SDS011;22004;49.120;-0.200;2023-03-01T04:48:57;12.25;;;9.25;;
35909;SDS011;22004;49.120;-0.200;2023-03-01T04:51:22;13.65;;;9.23;;
35909;SDS011;22004;49.120;-0.200;2023-03-01T04:53:48;12.45;;;9.45;;
35909;SDS011;22004;49.120;-0.200;2023-03-01T04:56:14;13.82;;;9.90;;
35909;SDS011;22004;49.120;-0.200;2023-03-01T04:58:39;14.30;;;9.65;;
35909;SDS011;22004;49.120;-0.200;2023-03-01T05:01:08;12.07;;;9.38;;
35909;SDS011;22004;49.120;-0.200;2023-03-01T05:03:40;14.43;;;10.15;;
35909;SDS011;22004;49.120;-0.200;2023-03-01T05:06:05;12.43;;;9.27;;
35909;SDS011;22004;49.120;-0.200;2023-03-01T05:08:31;14.32;;;9.13;;
35909;SDS011;22004;49.120;-0.200;2023-03-01T05:10:59;12.25;;;9.52;;
35909;SDS011;22004;49.120;-0.200;2023-03-01T05:13:25;13.60;;;9.30;;
35909;SDS011;22004;49.120;-0.200;2023-03-01T05:16:00;12.27;;;9.23;;
35909;SDS011;22004;49.120;-0.200;2023-03-01T05:18:28;12.05;;;9.57;;
35909;SDS011;22004;49.120;-0.200;2023-03-01T05:20:56;13.07;;;9.95;;
35909;SDS011;22004;49.120;-0.200;2023-03-01T05:23:30;11.45;;;9.10;;
35909;SDS011;22004;49.120;-0.200;2023-03-01T05:25:57;13.13;;;9.60;;
35909;SDS011;22004;49.120;-0.200;2023-03-01T05:28:24;13.38;;;9.55;;
35909;SDS011;22004;49.120;-0.200;2023-03-01T05:30:51;11.30;;;9.40;;
35909;SDS011;22004;49.120;-0.200;2023-03-01T05:33:17;13.70;;;9.57;;
35909;SDS011;22004;49.120;-0.200;2023-03-01T05:35:44;12.40;;;9.60;;
35909;SDS011;22004;49.120;-0.200;2023-03-01T05:38:10;12.70;;;9.15;;
35909;SDS011;22004;49.120;-0.200;2023-03-01T05:40:40;11.60;;;9.18;;
35909;SDS011;22004;49.120;-0.200;2023-03-01T05:43:10;12.27;;;9.25;;
35909;SDS011;22004;49.120;-0.200;2023-03-01T05:45:37;12.02;;;9.45;;
35909;SDS011;22004;49.120;-0.200;2023-03-01T05:48:03;13.25;;;9.50;;
35909;SDS011;22004;49.120;-0.200;2023-03-01T05:50:31;13.48;;;9.25;;
35909;SDS011;22004;49.120;-0.200;2023-03-01T05:52:59;13.95;;;9.50;;
35909;SDS011;22004;49.120;-0.200;2023-03-01T05:55:25;11.85;;;8.98;;
35909;SDS011;22004;49.120;-0.200;2023-03-01T05:57:52;15.13;;;9.95;;
35909;SDS011;22004;49.120;-0.200;2023-03-01T06:00:18;12.52;;;9.63;;
35909;SDS011;22004;49.120;-0.200;2023-03-01T06:02:45;13.43;;;8.93;;
35909;SDS011;22004;49.120;-0.200;2023-03-01T06:05:11;14.90;;;9.88;;
35909;SDS011;22004;49.120;-0.200;2023-03-01T06:07:37;11.52;;;9.60;;
35909;SDS011;22004;49.120;-0.200;2023-03-01T06:10:03;14.02;;;9.70;;
35909;SDS011;22004;49.120;-0.200;2023-03-01T06:12:34;12.45;;;10.02;;
35909;SDS011;22004;49.120;-0.200;2023-03-01T06:15:00;11.85;;;9.25;;
35909;SDS011;22004;49.120;-0.200;2023-03-01T06:17:28;13.93;;;9.70;;
35909;SDS011;22004;49.120;-0.200;2023-03-01T06:19:54;13.00;;;9.25;;
35909;SDS011;22004;49.120;-0.200;2023-03-01T06:22:20;11.48;;;9.15;;
35909;SDS011;22004;49.120;-0.200;2023-03-01T06:24:45;15.38;;;9.45;;
35909;SDS011;22004;49.120;-0.200;2023-03-01T06:27:11;15.32;;;9.88;;
35909;SDS011;22004;49.120;-0.200;2023-03-01T06:29:36;12.30;;;9.57;;
35909;SDS011;22004;49.120;-0.200;2023-03-01T06:32:02;13.55;;;9.43;;
35909;SDS011;22004;49.120;-0.200;2023-03-01T06:34:27;15.18;;;9.68;;
35909;SDS011;22004;49.120;-0.200;2023-03-01T06:36:53;13.75;;;9.95;;
35909;SDS011;22004;49.120;-0.200;2023-03-01T06:39:18;16.17;;;9.68;;
35909;SDS011;22004;49.120;-0.200;2023-03-01T06:41:44;15.02;;;9.95;;
35909;SDS011;22004;49.120;-0.200;2023-03-01T06:44:09;14.75;;;9.35;;
35909;SDS011;22004;49.120;-0.200;2023-03-01T06:46:35;11.98;;;9.48;;
35909;SDS011;22004;49.120;-0.200;2023-03-01T06:49:01;12.77;;;9.00;;
35909;SDS011;22004;49.120;-0.200;2023-03-01T06:51:29;13.55;;;9.52;;
35909;SDS011;22004;49.120;-0.200;2023-03-01T06:53:55;16.55;;;9.68;;
35909;SDS011;22004;49.120;-0.200;2023-03-01T06:56:20;12.10;;;9.13;;
35909;SDS011;22004;49.120;-0.200;2023-03-01T06:58:45;13.32;;;9.77;;
35909;SDS011;22004;49.120;-0.200;2023-03-01T07:01:11;17.38;;;9.88;;
35909;SDS011;22004;49.120;-0.200;2023-03-01T07:03:36;13.98;;;9.50;;
35909;SDS011;22004;49.120;-0.200;2023-03-01T07:06:01;12.13;;;8.93;;
35909;SDS011;22004;49.120;-0.200;2023-03-01T07:08:27;13.27;;;9.02;;
35909;SDS011;22004;49.120;-0.200;2023-03-01T07:10:56;16.65;;;10.15;;
35909;SDS011;22004;49.120;-0.200;2023-03-01T07:13:22;13.63;;;9.05;;
35909;SDS011;22004;49.120;-0.200;2023-03-01T07:15:47;16.83;;;9.98;;
35909;SDS011;22004;49.120;-0.200;2023-03-01T07:18:13;14.50;;;9.15;;
35909;SDS011;22004;49.120;-0.200;2023-03-01T07:20:38;13.98;;;9.90;;
35909;SDS011;22004;49.120;-0.200;2023-03-01T07:23:04;12.52;;;9.40;;
35909;SDS011;22004;49.120;-0.200;2023-03-01T07:25:30;11.68;;;9.73;;
35909;SDS011;22004;49.120;-0.200;2023-03-01T07:27:57;13.77;;;9.30;;
35909;SDS011;22004;49.120;-0.200;2023-03-01T07:30:23;15.73;;;10.07;;
35909;SDS011;22004;49.120;-0.200;2023-03-01T07:32:51;14.82;;;10.15;;
35909;SDS011;22004;49.120;-0.200;2023-03-01T07:35:16;13.85;;;10.20;;
35909;SDS011;22004;49.120;-0.200;2023-03-01T07:37:42;13.40;;;10.05;;
35909;SDS011;22004;49.120;-0.200;2023-03-01T07:40:07;16.58;;;11.40;;
35909;SDS011;22004;49.120;-0.200;2023-03-01T07:42:33;15.05;;;10.65;;
35909;SDS011;22004;49.120;-0.200;2023-03-01T07:44:58;17.05;;;11.43;;
35909;SDS011;22004;49.120;-0.200;2023-03-01T07:47:24;15.60;;;10.57;;
35909;SDS011;22004;49.120;-0.200;2023-03-01T07:49:49;15.23;;;10.95;;
35909;SDS011;22004;49.120;-0.200;2023-03-01T07:52:14;15.18;;;10.55;;
35909;SDS011;22004;49.120;-0.200;2023-03-01T07:54:42;15.00;;;11.18;;
35909;SDS011;22004;49.120;-0.200;2023-03-01T07:57:08;18.13;;;10.75;;
35909;SDS011;22004;49.120;-0.200;2023-03-01T07:59:33;17.23;;;11.35;;
35909;SDS011;22004;49.120;-0.200;2023-03-01T08:01:58;16.98;;;11.77;;
35909;SDS011;22004;49.120;-0.200;2023-03-01T08:04:24;19.83;;;12.80;;
35909;SDS011;22004;49.120;-0.200;2023-03-01T08:06:52;17.83;;;12.02;;
35909;SDS011;22004;49.120;-0.200;2023-03-01T08:09:18;19.73;;;11.07;;
35909;SDS011;22004;49.120;-0.200;2023-03-01T08:11:44;16.67;;;11.25;;
35909;SDS011;22004;49.120;-0.200;2023-03-01T08:14:09;16.73;;;11.88;;
35909;SDS011;22004;49.120;-0.200;2023-03-01T08:16:35;15.15;;;11.30;;
35909;SDS011;22004;49.120;-0.200;2023-03-01T08:19:08;16.33;;;12.05;;
35909;SDS011;22004;49.120;-0.200;2023-03-01T08:21:35;19.17;;;12.32;;
35909;SDS011;22004;49.120;-0.200;2023-03-01T08:24:01;18.38;;;12.40;;
35909;SDS011;22004;49.120;-0.200;2023-03-01T08:26:27;16.80;;;11.75;;
35909;SDS011;22004;49.120;-0.200;2023-03-01T08:28:53;18.52;;;11.88;;
35909;SDS011;22004;49.120;-0.200;2023-03-01T08:31:20;15.35;;;11.40;;
35909;SDS011;22004;49.120;-0.200;2023-03-01T08:33:47;16.63;;;11.77;;
35909;SDS011;22004;49.120;-0.200;2023-03-01T08:36:20;16.58;;;12.32;;
35909;SDS011;22004;49.120;-0.200;2023-03-01T08:38:46;17.38;;;11.68;;
35909;SDS011;22004;49.120;-0.200;2023-03-01T08:41:12;17.20;;;12.02;;
35909;SDS011;22004;49.120;-0.200;2023-03-01T08:43:37;16.48;;;11.23;;
35909;SDS011;22004;49.120;-0.200;2023-03-01T08:46:02;15.23;;;10.85;;
35909;SDS011;22004;49.120;-0.200;2023-03-01T08:48:28;15.10;;;11.63;;
35909;SDS011;22004;49.120;-0.200;2023-03-01T08:50:53;16.30;;;11.93;;
35909;SDS011;22004;49.120;-0.200;2023-03-01T08:53:19;18.42;;;11.65;;
35909;SDS011;22004;49.120;-0.200;2023-03-01T08:55:44;16.00;;;10.75;;
35909;SDS011;22004;49.120;-0.200;2023-03-01T08:58:10;17.48;;;11.38;;
35909;SDS011;22004;49.120;-0.200;2023-03-01T09:00:35;15.20;;;10.85;;
35909;SDS011;22004;49.120;-0.200;2023-03-01T09:03:01;15.10;;;11.18;;
35909;SDS011;22004;49.120;-0.200;2023-03-01T09:05:27;17.02;;;11.27;;
35909;SDS011;22004;49.120;-0.200;2023-03-01T09:07:52;15.65;;;11.48;;
35909;SDS011;22004;49.120;-0.200;2023-03-01T09:10:17;16.42;;;11.25;;
35909;SDS011;22004;49.120;-0.200;2023-03-01T09:12:43;16.08;;;11.25;;
35909;SDS011;22004;49.120;-0.200;2023-03-01T09:15:08;16.52;;;12.07;;
35909;SDS011;22004;49.120;-0.200;2023-03-01T09:17:34;16.95;;;10.75;;
35909;SDS011;22004;49.120;-0.200;2023-03-01T09:19:59;17.75;;;11.07;;
35909;SDS011;22004;49.120;-0.200;2023-03-01T09:22:25;16.63;;;11.75;;
35909;SDS011;22004;49.120;-0.200;2023-03-01T09:24:50;16.02;;;11.20;;
35909;SDS011;22004;49.120;-0.200;2023-03-01T09:27:16;16.25;;;10.80;;
35909;SDS011;22004;49.120;-0.200;2023-03-01T09:29:43;17.88;;;10.65;;
35909;SDS011;22004;49.120;-0.200;2023-03-01T09:32:09;14.15;;;10.80;;
35909;SDS011;22004;49.120;-0.200;2023-03-01T09:34:35;12.13;;;9.90;;
35909;SDS011;22004;49.120;-0.200;2023-03-01T09:37:23;14.15;;;10.82;;
35909;SDS011;22004;49.120;-0.200;2023-03-01T09:39:48;14.35;;;10.48;;
35909;SDS011;22004;49.120;-0.200;2023-03-01T09:42:14;14.65;;;10.60;;
35909;SDS011;22004;49.120;-0.200;2023-03-01T09:47:30;18.77;;;11.18;;
35909;SDS011;22004;49.120;-0.200;2023-03-01T09:50:14;14.80;;;10.73;;
35909;SDS011;22004;49.120;-0.200;2023-03-01T09:53:01;17.30;;;10.15;;
35909;SDS011;22004;49.120;-0.200;2023-03-01T09:56:09;17.67;;;11.38;;
35909;SDS011;22004;49.120;-0.200;2023-03-01T10:01:27;14.88;;;10.85;;
35909;SDS011;22004;49.120;-0.200;2023-03-01T10:06:38;17.20;;;11.25;;
35909;SDS011;22004;49.120;-0.200;2023-03-01T10:09:12;18.88;;;12.45;;
35909;SDS011;22004;49.120;-0.200;2023-03-01T10:11:45;14.40;;;11.13;;
35909;SDS011;22004;49.120;-0.200;2023-03-01T10:14:30;16.98;;;10.95;;
35909;SDS011;22004;49.120;-0.200;2023-03-01T10:19:45;14.05;;;10.23;;
35909;SDS011;22004;49.120;-0.200;2023-03-01T10:24:46;16.15;;;9.85;;
35909;SDS011;22004;49.120;-0.200;2023-03-01T10:27:23;16.45;;;12.00;;
35909;SDS011;22004;49.120;-0.200;2023-03-01T10:32:27;14.88;;;10.38;;
35909;SDS011;22004;49.120;-0.200;2023-03-01T10:34:52;13.82;;;9.65;;
35909;SDS011;22004;49.120;-0.200;2023-03-01T10:37:18;16.45;;;10.75;;
35909;SDS011;22004;49.120;-0.200;2023-03-01T10:48:20;13.40;;;9.65;;
35909;SDS011;22004;49.120;-0.200;2023-03-01T10:56:01;13.20;;;9.50;;
35909;SDS011;22004;49.120;-0.200;2023-03-01T10:58:33;14.30;;;9.60;;
35909;SDS011;22004;49.120;-0.200;2023-03-01T11:01:01;12.73;;;9.48;;
35909;SDS011;22004;49.120;-0.200;2023-03-01T11:03:38;10.80;;;8.57;;
35909;SDS011;22004;49.120;-0.200;2023-03-01T11:13:52;12.93;;;8.95;;
35909;SDS011;22004;49.120;-0.200;2023-03-01T11:16:38;12.20;;;8.05;;
35909;SDS011;22004;49.120;-0.200;2023-03-01T11:21:35;15.43;;;9.18;;
35909;SDS011;22004;49.120;-0.200;2023-03-01T11:24:11;14.98;;;9.38;;
35909;SDS011;22004;49.120;-0.200;2023-03-01T11:26:40;12.02;;;8.30;;
35909;SDS011;22004;49.120;-0.200;2023-03-01T11:29:44;15.10;;;8.27;;
35909;SDS011;22004;49.120;-0.200;2023-03-01T11:32:08;12.30;;;8.35;;
35909;SDS011;22004;49.120;-0.200;2023-03-01T11:34:38;13.65;;;9.30;;
35909;SDS011;22004;49.120;-0.200;2023-03-01T11:37:15;11.43;;;8.70;;
35909;SDS011;22004;49.120;-0.200;2023-03-01T11:39:58;13.45;;;9.50;;
35909;SDS011;22004;49.120;-0.200;2023-03-01T11:45:09;15.23;;;10.27;;
35909;SDS011;22004;49.120;-0.200;2023-03-01T11:47:56;14.23;;;9.57;;
35909;SDS011;22004;49.120;-0.200;2023-03-01T11:50:35;13.20;;;9.60;;
35909;SDS011;22004;49.120;-0.200;2023-03-01T11:56:18;14.07;;;9.65;;
35909;SDS011;22004;49.120;-0.200;2023-03-01T12:06:55;15.75;;;10.10;;
35909;SDS011;22004;49.120;-0.200;2023-03-01T12:15:04;16.67;;;10.82;;
35909;SDS011;22004;49.120;-0.200;2023-03-01T12:25:54;21.98;;;13.23;;
35909;SDS011;22004;49.120;-0.200;2023-03-01T12:31:14;9.85;;;8.63;;
35909;SDS011;22004;49.120;-0.200;2023-03-01T12:36:41;16.40;;;11.07;;
35909;SDS011;22004;49.120;-0.200;2023-03-01T12:44:36;21.95;;;13.15;;
35909;SDS011;22004;49.120;-0.200;2023-03-01T12:49:44;19.33;;;11.43;;
35909;SDS011;22004;49.120;-0.200;2023-03-01T12:55:06;17.25;;;10.48;;
35909;SDS011;22004;49.120;-0.200;2023-03-01T12:57:46;16.35;;;10.77;;
35909;SDS011;22004;49.120;-0.200;2023-03-01T13:00:28;15.32;;;10.95;;
35909;SDS011;22004;49.120;-0.200;2023-03-01T13:10:57;15.38;;;10.68;;
35909;SDS011;22004;49.120;-0.200;2023-03-01T13:13:28;23.83;;;14.90;;
35909;SDS011;22004;49.120;-0.200;2023-03-01T13:15:54;14.77;;;10.82;;
35909;SDS011;22004;49.120;-0.200;2023-03-01T13:20:50;15.77;;;10.68;;
35909;SDS011;22004;49.120;-0.200;2023-03-01T13:33:58;17.63;;;11.23;;
35909;SDS011;22004;49.120;-0.200;2023-03-01T13:41:48;14.32;;;10.52;;
35909;SDS011;22004;49.120;-0.200;2023-03-01T13:46:48;12.43;;;9.05;;
35909;SDS011;22004;49.120;-0.200;2023-03-01T13:49:15;13.43;;;8.85;;
35909;SDS011;22004;49.120;-0.200;2023-03-01T13:51:46;12.57;;;8.38;;
35909;SDS011;22004;49.120;-0.200;2023-03-01T13:54:12;15.60;;;10.45;;
35909;SDS011;22004;49.120;-0.200;2023-03-01T13:56:40;17.95;;;11.48;;
35909;SDS011;22004;49.120;-0.200;2023-03-01T13:59:06;13.27;;;9.48;;
35909;SDS011;22004;49.120;-0.200;2023-03-01T14:01:39;18.02;;;9.32;;
35909;SDS011;22004;49.120;-0.200;2023-03-01T14:06:50;14.82;;;11.10;;
35909;SDS011;22004;49.120;-0.200;2023-03-01T14:09:20;12.60;;;8.88;;
35909;SDS011;22004;49.120;-0.200;2023-03-01T14:19:55;11.98;;;8.00;;
35909;SDS011;22004;49.120;-0.200;2023-03-01T14:22:25;13.00;;;8.32;;
35909;SDS011;22004;49.120;-0.200;2023-03-01T14:25:04;11.65;;;7.97;;
35909;SDS011;22004;49.120;-0.200;2023-03-01T14:27:41;12.35;;;8.75;;
35909;SDS011;22004;49.120;-0.200;2023-03-01T14:30:11;17.33;;;7.70;;
35909;SDS011;22004;49.120;-0.200;2023-03-01T14:32:42;13.88;;;8.00;;
35909;SDS011;22004;49.120;-0.200;2023-03-01T14:35:21;12.30;;;7.57;;
35909;SDS011;22004;49.120;-0.200;2023-03-01T14:37:48;10.45;;;6.93;;
35909;SDS011;22004;49.120;-0.200;2023-03-01T14:40:28;9.25;;;6.97;;
35909;SDS011;22004;49.120;-0.200;2023-03-01T14:43:01;8.82;;;6.90;;
35909;SDS011;22004;49.120;-0.200;2023-03-01T14:45:34;9.90;;;6.40;;
35909;SDS011;22004;49.120;-0.200;2023-03-01T14:48:01;10.27;;;7.03;;
35909;SDS011;22004;49.120;-0.200;2023-03-01T14:50:30;10.93;;;7.35;;
35909;SDS011;22004;49.120;-0.200;2023-03-01T14:52:58;12.18;;;6.68;;
35909;SDS011;22004;49.120;-0.200;2023-03-01T14:55:31;14.15;;;6.70;;
35909;SDS011;22004;49.120;-0.200;2023-03-01T14:57:57;10.35;;;6.72;;
35909;SDS011;22004;49.120;-0.200;2023-03-01T15:00:26;12.63;;;6.85;;
35909;SDS011;22004;49.120;-0.200;2023-03-01T15:02:54;10.95;;;6.57;;
35909;SDS011;22004;49.120;-0.200;2023-03-01T15:05:29;11.25;;;7.30;;
35909;SDS011;22004;49.120;-0.200;2023-03-01T15:07:57;9.77;;;5.88;;
35909;SDS011;22004;49.120;-0.200;2023-03-01T15:10:28;12.95;;;7.18;;
35909;SDS011;22004;49.120;-0.200;2023-03-01T15:12:56;9.55;;;5.63;;
35909;SDS011;22004;49.120;-0.200;2023-03-01T15:15:35;11.13;;;6.10;;
35909;SDS011;22004;49.120;-0.200;2023-03-01T15:18:04;11.70;;;7.13;;
35909;SDS011;22004;49.120;-0.200;2023-03-01T15:20:38;11.73;;;6.53;;
35909;SDS011;22004;49.120;-0.200;2023-03-01T15:23:04;13.60;;;7.37;;
35909;SDS011;22004;49.120;-0.200;2023-03-01T15:25:30;10.23;;;6.22;;
35909;SDS011;22004;49.120;-0.200;2023-03-01T15:27:57;9.52;;;6.32;;
35909;SDS011;22004;49.120;-0.200;2023-03-01T15:30:32;10.70;;;5.75;;
35909;SDS011;22004;49.120;-0.200;2023-03-01T15:35:50;9.88;;;6.00;;
35909;SDS011;22004;49.120;-0.200;2023-03-01T15:38:51;9.90;;;5.72;;
35909;SDS011;22004;49.120;-0.200;2023-03-01T15:41:26;11.05;;;6.15;;
35909;SDS011;22004;49.120;-0.200;2023-03-01T15:43:56;12.32;;;5.88;;
35909;SDS011;22004;49.120;-0.200;2023-03-01T15:46:38;14.68;;;5.72;;
35909;SDS011;22004;49.120;-0.200;2023-03-01T15:49:05;12.40;;;6.18;;
35909;SDS011;22004;49.120;-0.200;2023-03-01T15:51:53;10.05;;;6.07;;
35909;SDS011;22004;49.120;-0.200;2023-03-01T15:54:21;10.98;;;5.40;;
35909;SDS011;22004;49.120;-0.200;2023-03-01T15:56:48;9.52;;;5.07;;
35909;SDS011;22004;49.120;-0.200;2023-03-01T15:59:14;8.85;;;5.53;;
35909;SDS011;22004;49.120;-0.200;2023-03-01T16:01:40;8.90;;;5.18;;
35909;SDS011;22004;49.120;-0.200;2023-03-01T16:04:06;7.63;;;5.47;;
35909;SDS011;22004;49.120;-0.200;2023-03-01T16:06:31;8.95;;;5.15;;
35909;SDS011;22004;49.120;-0.200;2023-03-01T16:08:57;9.05;;;5.28;;
35909;SDS011;22004;49.120;-0.200;2023-03-01T16:11:22;10.50;;;5.65;;
35909;SDS011;22004;49.120;-0.200;2023-03-01T16:13:48;9.48;;;5.00;;
35909;SDS011;22004;49.120;-0.200;2023-03-01T16:16:14;10.88;;;5.45;;
35909;SDS011;22004;49.120;-0.200;2023-03-01T16:18:45;9.90;;;5.00;;
35909;SDS011;22004;49.120;-0.200;2023-03-01T16:21:21;13.07;;;4.72;;
35909;SDS011;22004;49.120;-0.200;2023-03-01T16:23:49;9.25;;;5.15;;
35909;SDS011;22004;49.120;-0.200;2023-03-01T16:26:16;8.80;;;5.28;;
35909;SDS011;22004;49.120;-0.200;2023-03-01T16:28:42;10.73;;;4.82;;
35909;SDS011;22004;49.120;-0.200;2023-03-01T16:31:08;7.18;;;4.75;;
35909;SDS011;22004;49.120;-0.200;2023-03-01T16:33:34;8.27;;;4.95;;
35909;SDS011;22004;49.120;-0.200;2023-03-01T16:36:01;8.25;;;4.57;;
35909;SDS011;22004;49.120;-0.200;2023-03-01T16:38:33;7.72;;;4.70;;
35909;SDS011;22004;49.120;-0.200;2023-03-01T16:40:59;7.55;;;5.32;;
35909;SDS011;22004;49.120;-0.200;2023-03-01T16:43:25;9.50;;;5.13;;